createdAt,value
2023-05-16T00:00:54.306Z,100004.22
2023-05-16T00:03:57.413Z,100001.50
2023-05-16T00:07:02.047Z,99999.53
2023-05-16T00:10:06.338Z,99989.28
2023-05-16T00:13:09.923Z,99993.75
2023-05-16T00:16:14.530Z,99998.31
2023-05-16T00:19:17.483Z,99998.22
2023-05-16T00:22:21.662Z,99992.88
2023-05-16T00:25:24.383Z,100008.41
2023-05-16T00:28:27.256Z,99997.81
2023-05-16T00:31:30.062Z,100000.81
2023-05-16T00:34:32.790Z,100007.03
2023-05-16T00:37:36.923Z,100005.19
2023-05-16T00:40:40.342Z,100004.97
2023-05-16T00:43:43.069Z,100002.97
2023-05-16T00:46:45.846Z,99997.44
2023-05-16T00:49:48.838Z,100009.00
2023-05-16T00:52:53.000Z,100002.19
2023-05-16T00:55:57.590Z,99992.88
2023-05-16T00:59:00.676Z,99995.53
2023-05-16T01:02:03.944Z,100003.28
2023-05-16T01:05:07.591Z,100008.25
2023-05-16T01:08:11.622Z,100008.91
2023-05-16T01:11:23.405Z,100005.63
2023-05-16T01:14:33.966Z,99994.72
2023-05-16T01:17:45.592Z,99992.81
2023-05-16T01:20:56.064Z,99997.16
2023-05-16T01:24:11.280Z,99996.09
2023-05-16T01:27:16.869Z,99998.03
2023-05-16T01:30:21.243Z,99995.22
2023-05-16T01:33:23.932Z,100001.53
2023-05-16T01:36:31.856Z,100001.34
2023-05-16T01:39:39.015Z,99995.69
2023-05-16T01:42:46.423Z,100001.53
2023-05-16T01:45:55.088Z,100001.63
2023-05-16T01:49:16.815Z,99999.78
2023-05-16T01:52:27.030Z,99993.84
2023-05-16T01:55:43.812Z,100000.56
2023-05-16T01:58:51.052Z,100010.34
2023-05-16T02:01:54.963Z,100010.56
2023-05-16T02:04:57.618Z,100006.09
2023-05-16T02:08:00.539Z,100011.13
2023-05-16T02:11:03.313Z,100013.94
2023-05-16T02:14:07.305Z,100016.56
2023-05-16T02:17:10.024Z,100021.63
2023-05-16T02:20:14.181Z,100003.13
2023-05-16T02:23:16.888Z,100021.44
2023-05-16T02:26:19.730Z,99992.00
2023-05-16T02:29:23.775Z,100022.34
2023-05-16T02:32:26.649Z,100025.06
2023-05-16T02:35:29.555Z,100031.28
2023-05-16T02:38:32.307Z,100023.13
2023-05-16T02:41:34.995Z,100029.63
2023-05-16T02:44:39.033Z,100036.53
2023-05-16T02:47:41.748Z,100029.63
2023-05-16T02:50:44.498Z,100039.63
2023-05-16T02:53:47.184Z,100030.81
2023-05-16T02:56:49.888Z,100037.53
2023-05-16T02:59:53.947Z,100045.94
2023-05-16T03:02:57.037Z,100047.72
2023-05-16T03:05:59.851Z,100045.78
2023-05-16T03:09:03.239Z,100039.47
2023-05-16T03:12:07.144Z,100039.84
2023-05-16T03:15:12.147Z,100034.75
2023-05-16T03:18:14.830Z,100039.22
2023-05-16T03:21:17.540Z,100047.69
2023-05-16T03:24:23.001Z,100048.81
2023-05-16T03:27:27.809Z,100046.56
2023-05-16T03:30:31.983Z,100055.13
2023-05-16T03:33:34.777Z,100059.38
2023-05-16T03:36:37.586Z,100056.88
2023-05-16T03:39:40.377Z,100053.19
2023-05-16T03:42:43.165Z,100050.63
2023-05-16T03:45:47.219Z,100056.78
2023-05-16T03:48:50.006Z,100061.13
2023-05-16T03:51:52.703Z,100062.09
2023-05-16T03:54:55.479Z,100064.75
2023-05-16T03:57:58.332Z,100073.88
2023-05-16T04:01:03.154Z,100082.03
2023-05-16T04:04:05.983Z,100095.38
2023-05-16T04:07:15.953Z,100095.16
2023-05-16T04:10:18.637Z,100092.34
2023-05-16T04:13:21.367Z,100086.91
2023-05-16T04:16:25.459Z,100100.44
2023-05-16T04:19:28.160Z,100102.19
2023-05-16T04:22:30.892Z,100095.78
2023-05-16T04:25:33.654Z,100105.69
2023-05-16T04:28:36.589Z,100100.06
2023-05-16T04:31:40.689Z,100099.88
2023-05-16T04:34:44.267Z,100097.06
2023-05-16T04:37:47.243Z,100101.44
2023-05-16T04:40:51.060Z,100077.13
2023-05-16T04:43:53.816Z,100099.50
2023-05-16T04:46:57.985Z,100114.38
2023-05-16T04:50:00.751Z,100116.28
2023-05-16T04:53:03.850Z,100113.47
2023-05-16T04:56:07.067Z,100119.44
2023-05-16T04:59:09.801Z,100116.03
2023-05-16T05:02:14.242Z,100122.31
2023-05-16T05:05:17.081Z,100113.31
2023-05-16T05:08:19.937Z,100115.81
2023-05-16T05:11:23.192Z,100121.09
2023-05-16T05:14:25.883Z,100112.63
2023-05-16T05:17:30.084Z,100113.34
2023-05-16T05:20:32.868Z,100120.38
2023-05-16T05:23:35.834Z,100127.50
2023-05-16T05:26:38.663Z,100119.16
2023-05-16T05:29:41.450Z,100121.59
2023-05-16T05:32:45.604Z,100122.38
2023-05-16T05:35:48.340Z,100132.00
2023-05-16T05:38:51.208Z,100128.03
2023-05-16T05:41:53.841Z,100134.03
2023-05-16T05:44:58.931Z,100130.22
2023-05-16T05:48:03.127Z,100131.81
2023-05-16T05:51:06.125Z,100128.88
2023-05-16T05:54:09.213Z,100134.84
2023-05-16T05:57:11.947Z,100139.28
2023-05-16T06:00:18.063Z,100140.28
2023-05-16T06:03:22.290Z,100142.72
2023-05-16T06:06:25.043Z,100139.91
2023-05-16T06:09:27.716Z,100144.69
2023-05-16T06:12:30.374Z,100133.69
2023-05-16T06:15:33.109Z,100135.09
2023-05-16T06:18:37.199Z,100134.22
2023-05-16T06:21:39.880Z,100134.22
2023-05-16T06:24:42.571Z,100128.00
2023-05-16T06:27:47.264Z,100128.91
2023-05-16T06:30:51.806Z,100135.50
2023-05-16T06:33:56.462Z,100143.59
2023-05-16T06:36:59.808Z,100137.88
2023-05-16T06:40:02.656Z,100139.56
2023-05-16T06:43:05.392Z,100148.22
2023-05-16T06:46:08.142Z,100152.13
2023-05-16T06:49:12.366Z,100146.66
2023-05-16T06:52:15.081Z,100153.31
2023-05-16T06:55:17.985Z,100153.31
2023-05-16T06:58:20.784Z,100164.41
2023-05-16T07:01:27.375Z,100165.75
2023-05-16T07:04:31.530Z,100158.94
2023-05-16T07:07:34.254Z,100173.00
2023-05-16T07:10:37.189Z,100176.97
2023-05-16T07:13:39.882Z,100183.13
2023-05-16T07:16:42.834Z,100178.66
2023-05-16T07:19:46.893Z,100180.41
2023-05-16T07:22:49.658Z,100184.09
2023-05-16T07:25:53.331Z,100181.38
2023-05-16T07:28:56.233Z,100187.47
2023-05-16T07:31:59.384Z,100184.84
2023-05-16T07:35:03.677Z,100180.19
2023-05-16T07:38:06.562Z,100181.63
2023-05-16T07:41:11.617Z,100188.13
2023-05-16T07:44:14.609Z,100186.09
2023-05-16T07:47:17.342Z,100194.47
2023-05-16T07:50:24.769Z,100194.38
2023-05-16T07:53:27.469Z,100188.28
2023-05-16T07:56:30.263Z,100200.06
2023-05-16T07:59:33.109Z,100199.84
2023-05-16T08:02:36.143Z,100188.38
2023-05-16T08:05:41.322Z,100196.56
2023-05-16T08:08:47.381Z,100201.31
2023-05-16T08:11:50.375Z,100209.66
2023-05-16T08:14:53.090Z,100218.06
2023-05-16T08:17:58.532Z,100211.66
2023-05-16T08:21:02.846Z,100223.03
2023-05-16T08:24:06.447Z,100211.91
2023-05-16T08:27:09.637Z,100223.00
2023-05-16T08:30:13.207Z,100233.00
2023-05-16T08:33:16.190Z,100235.63
2023-05-16T08:36:20.682Z,100237.28
2023-05-16T08:39:30.678Z,100241.97
2023-05-16T08:42:35.021Z,100240.50
2023-05-16T08:45:45.335Z,100243.47
2023-05-16T08:48:48.702Z,100241.97
2023-05-16T08:51:53.471Z,100263.78
2023-05-16T08:55:09.151Z,100252.91
2023-05-16T08:58:21.830Z,100251.63
2023-05-16T09:01:24.820Z,100263.75
2023-05-16T09:04:27.984Z,100248.56
2023-05-16T09:07:32.215Z,100252.25
2023-05-16T09:10:34.894Z,100266.63
2023-05-16T09:13:38.817Z,100261.22
2023-05-16T09:16:41.651Z,100261.75
2023-05-16T09:19:45.093Z,100266.09
2023-05-16T09:22:54.247Z,100269.19
2023-05-16T09:25:59.234Z,100275.50
2023-05-16T09:29:02.323Z,100268.50
2023-05-16T09:32:15.860Z,100265.78
2023-05-16T09:35:27.235Z,100267.25
2023-05-16T09:38:38.881Z,100277.34
2023-05-16T09:41:41.594Z,100281.66
2023-05-16T09:44:48.082Z,100277.53
2023-05-16T09:47:53.925Z,100270.47
2023-05-16T09:51:06.018Z,100284.78
2023-05-16T09:54:10.505Z,100297.25
2023-05-16T09:57:13.236Z,100293.66
2023-05-16T10:00:17.321Z,100297.47
2023-05-16T10:03:20.503Z,100303.81
2023-05-16T10:06:23.640Z,100301.31
2023-05-16T10:09:29.327Z,100303.47
2023-05-16T10:12:33.208Z,100300.69
2023-05-16T10:15:39.106Z,100308.28
2023-05-16T10:18:43.401Z,100306.22
2023-05-16T10:21:51.412Z,100308.56
2023-05-16T10:25:05.379Z,100304.00
2023-05-16T10:28:16.460Z,100292.69
2023-05-16T10:31:19.485Z,100311.66
2023-05-16T10:34:23.139Z,100308.59
2023-05-16T10:37:26.600Z,100301.22
2023-05-16T10:40:31.788Z,100306.50
2023-05-16T10:43:34.475Z,100303.00
2023-05-16T10:46:39.460Z,100301.41
2023-05-16T10:49:42.680Z,100293.06
2023-05-16T10:52:45.377Z,100312.47
2023-05-16T10:56:10.468Z,100309.84
2023-05-16T10:59:28.432Z,100304.75
2023-05-16T11:02:34.703Z,100301.94
2023-05-16T11:05:38.228Z,100302.63
2023-05-16T11:08:59.360Z,100310.88
2023-05-16T11:12:03.936Z,100312.44
2023-05-16T11:15:28.527Z,100307.78
2023-05-16T11:18:33.804Z,100321.31
2023-05-16T11:22:22.938Z,100314.25
2023-05-16T11:25:39.294Z,100303.88
2023-05-16T11:28:43.557Z,100305.78
2023-05-16T11:31:46.654Z,100310.94
2023-05-16T11:34:49.817Z,100296.25
2023-05-16T11:37:52.637Z,100299.69
2023-05-16T11:40:55.384Z,100290.38
2023-05-16T11:43:59.543Z,100294.97
2023-05-16T11:47:03.624Z,100292.72
2023-05-16T11:50:07.866Z,100300.75
2023-05-16T11:53:10.650Z,100296.88
2023-05-16T11:56:13.526Z,100312.84
2023-05-16T11:59:18.235Z,100308.94
2023-05-16T12:02:21.925Z,100304.78
2023-05-16T12:05:28.378Z,100294.81
2023-05-16T12:08:31.333Z,100287.03
2023-05-16T12:11:34.450Z,100290.22
2023-05-16T12:14:38.498Z,100280.94
2023-05-16T12:17:42.868Z,100270.59
2023-05-16T12:20:46.227Z,100277.94
2023-05-16T12:23:49.053Z,100281.94
2023-05-16T12:26:54.605Z,100283.59
2023-05-16T12:30:00.516Z,100287.31
2023-05-16T12:33:09.377Z,100284.16
2023-05-16T12:36:15.687Z,100285.28
2023-05-16T12:39:18.524Z,100290.09
2023-05-16T12:42:21.475Z,100269.28
2023-05-16T12:45:25.894Z,100270.22
2023-05-16T12:48:33.686Z,100260.56
2023-05-16T12:51:36.578Z,100273.22
2023-05-16T12:54:39.895Z,100263.50
2023-05-16T12:57:43.992Z,100258.59
2023-05-16T13:00:48.639Z,100266.53
2023-05-16T13:03:51.431Z,100276.31
2023-05-16T13:06:59.133Z,100297.47
2023-05-16T13:10:04.250Z,100285.47
2023-05-16T13:13:07.185Z,100271.13
2023-05-16T13:16:11.779Z,100272.72
2023-05-16T13:19:14.532Z,100262.22
2023-05-16T13:22:17.363Z,100270.84
2023-05-16T13:25:20.539Z,100266.34
2023-05-16T13:28:23.431Z,100267.97
2023-05-16T13:31:27.751Z,100284.31
2023-05-16T13:34:30.595Z,100287.53
2023-05-16T13:37:33.517Z,100288.03
2023-05-16T13:40:36.556Z,100287.41
2023-05-16T13:43:39.275Z,100286.78
2023-05-16T13:46:43.449Z,100295.06
2023-05-16T13:49:46.173Z,100281.31
2023-05-16T13:52:49.203Z,100298.06
2023-05-16T13:55:52.008Z,100282.47
2023-05-16T13:59:03.764Z,100288.06
2023-05-16T14:02:10.282Z,100295.41
2023-05-16T14:05:13.179Z,100296.66
2023-05-16T14:08:15.934Z,100304.94
2023-05-16T14:11:19.652Z,100314.28
2023-05-16T14:14:22.608Z,100309.63
2023-05-16T14:17:26.864Z,100310.16
2023-05-16T14:20:29.634Z,100307.56
2023-05-16T14:23:32.355Z,100307.16
2023-05-16T14:26:35.151Z,100313.97
2023-05-16T14:29:38.171Z,100316.00
2023-05-16T14:32:42.475Z,100302.13
2023-05-16T14:35:45.427Z,100300.78
2023-05-16T14:38:49.571Z,100304.72
2023-05-16T14:41:53.028Z,100294.53
2023-05-16T14:44:55.811Z,100292.50
2023-05-16T14:48:00.111Z,100293.81
2023-05-16T14:51:03.699Z,100285.47
2023-05-16T14:54:06.671Z,100289.50
2023-05-16T14:57:09.642Z,100285.72
2023-05-16T15:00:17.077Z,100282.66
2023-05-16T15:03:21.487Z,100300.69
2023-05-16T15:06:26.710Z,100304.31
2023-05-16T15:09:29.530Z,100298.19
2023-05-16T15:12:32.568Z,100295.38
2023-05-16T15:15:35.492Z,100289.69
2023-05-16T15:18:40.778Z,100291.97
2023-05-16T15:21:43.684Z,100306.50
2023-05-16T15:24:46.596Z,100289.91
2023-05-16T15:27:49.614Z,100282.53
2023-05-16T15:30:52.699Z,100290.50
2023-05-16T15:33:56.851Z,100298.16
2023-05-16T15:36:59.896Z,100306.91
2023-05-16T15:40:04.434Z,100296.28
2023-05-16T15:43:07.363Z,100311.72
2023-05-16T15:46:10.537Z,100313.66
2023-05-16T15:49:14.883Z,100291.94
2023-05-16T15:52:17.658Z,100308.19
2023-05-16T15:55:20.532Z,100309.00
2023-05-16T15:58:24.297Z,100311.44
2023-05-16T16:01:27.627Z,100311.28
2023-05-16T16:04:32.714Z,100314.22
2023-05-16T16:07:35.553Z,100321.47
2023-05-16T16:10:38.618Z,100313.53
2023-05-16T16:13:41.442Z,100306.06
2023-05-16T16:16:44.835Z,100313.28
2023-05-16T16:19:49.148Z,100312.59
2023-05-16T16:22:52.669Z,100298.28
2023-05-16T16:25:55.786Z,100313.88
2023-05-16T16:28:58.839Z,100319.72
2023-05-16T16:32:01.642Z,100313.47
2023-05-16T16:35:06.805Z,100318.28
2023-05-16T16:38:09.716Z,100322.25
2023-05-16T16:41:14.786Z,100315.03
2023-05-16T16:44:18.032Z,100321.72
2023-05-16T16:47:21.303Z,100314.75
2023-05-16T16:50:31.104Z,100320.19
2023-05-16T16:53:35.282Z,100329.81
2023-05-16T16:56:38.083Z,100332.06
2023-05-16T16:59:40.981Z,100338.59
2023-05-16T17:02:43.869Z,100342.25
2023-05-16T17:05:48.213Z,100347.13
2023-05-16T17:08:51.007Z,100348.66
2023-05-16T17:11:54.031Z,100359.50
2023-05-16T17:14:57.315Z,100361.94
2023-05-16T17:18:00.259Z,100369.34
2023-05-16T17:21:05.181Z,100368.16
2023-05-16T17:24:08.595Z,100373.41
2023-05-16T17:27:11.726Z,100380.09
2023-05-16T17:30:15.548Z,100383.47
2023-05-16T17:33:19.982Z,100365.66
2023-05-16T17:36:24.316Z,100379.00
2023-05-16T17:39:27.125Z,100379.50
2023-05-16T17:42:29.832Z,100384.16
2023-05-16T17:45:32.799Z,100387.69
2023-05-16T17:48:35.611Z,100387.06
2023-05-16T17:51:50.808Z,100395.13
2023-05-16T17:54:53.622Z,100398.50
2023-05-16T17:57:56.483Z,100411.72
2023-05-16T18:00:59.190Z,100410.72
2023-05-16T18:04:02.219Z,100413.63
2023-05-16T18:07:06.529Z,100412.88
2023-05-16T18:10:10.389Z,100421.84
2023-05-16T18:13:13.985Z,100417.06
2023-05-16T18:16:17.200Z,100428.66
2023-05-16T18:19:20.699Z,100432.25
2023-05-16T18:22:26.085Z,100433.31
2023-05-16T18:25:29.377Z,100433.84
2023-05-16T18:28:32.259Z,100446.31
2023-05-16T18:31:35.542Z,100446.50
2023-05-16T18:34:41.450Z,100448.75
2023-05-16T18:37:46.682Z,100452.22
2023-05-16T18:40:50.447Z,100462.50
2023-05-16T18:43:53.298Z,100467.41
2023-05-16T18:46:58.698Z,100478.66
2023-05-16T18:50:02.577Z,100493.50
2023-05-16T18:53:06.767Z,100499.97
2023-05-16T18:56:09.462Z,100500.28
2023-05-16T18:59:12.506Z,100507.25
2023-05-16T19:02:15.867Z,100516.69
2023-05-16T19:05:19.561Z,100520.09
2023-05-16T19:08:25.573Z,100521.19
2023-05-16T19:11:30.030Z,100524.38
2023-05-16T19:14:32.924Z,100528.56
2023-05-16T19:17:35.717Z,100530.59
2023-05-16T19:20:43.235Z,100535.88
2023-05-16T19:23:49.028Z,100547.94
2023-05-16T19:26:51.854Z,100545.72
2023-05-16T19:29:54.576Z,100552.97
2023-05-16T19:32:58.679Z,100562.59
2023-05-16T19:36:05.891Z,100559.31
2023-05-16T19:39:11.209Z,100562.56
2023-05-16T19:42:13.920Z,100571.94
2023-05-16T19:45:16.671Z,100574.00
2023-05-16T19:48:20.050Z,100562.97
2023-05-16T19:51:37.227Z,100579.25
2023-05-16T19:54:45.346Z,100588.59
2023-05-16T19:57:48.144Z,100586.66
2023-05-16T20:00:51.843Z,100594.28
2023-05-16T20:03:54.623Z,100605.28
2023-05-16T20:06:57.850Z,100608.81
2023-05-16T20:10:02.369Z,100604.75
2023-05-16T20:13:05.460Z,100611.25
2023-05-16T20:16:08.384Z,100622.50
2023-05-16T20:19:13.597Z,100630.13
2023-05-16T20:22:17.117Z,100620.31
2023-05-16T20:25:21.321Z,100631.66
2023-05-16T20:28:27.348Z,100633.84
2023-05-16T20:31:30.376Z,100615.69
2023-05-16T20:34:33.262Z,100642.47
2023-05-16T20:37:36.008Z,100639.25
2023-05-16T20:40:40.838Z,100646.78
2023-05-16T20:43:43.618Z,100649.59
2023-05-16T20:46:46.560Z,100654.19
2023-05-16T20:49:49.396Z,100656.22
2023-05-16T20:52:52.162Z,100651.00
2023-05-16T20:55:56.292Z,100659.25
2023-05-16T20:58:59.171Z,100668.31
2023-05-16T21:02:01.919Z,100670.50
2023-05-16T21:05:22.990Z,100665.28
2023-05-16T21:08:28.006Z,100669.88
2023-05-16T21:11:32.990Z,100666.47
2023-05-16T21:14:35.670Z,100663.00
2023-05-16T21:17:39.838Z,100674.41
2023-05-16T21:20:42.762Z,100680.25
2023-05-16T21:23:45.480Z,100683.78
2023-05-16T21:26:49.543Z,100686.09
2023-05-16T21:29:52.236Z,100680.06
2023-05-16T21:32:55.010Z,100700.03
2023-05-16T21:35:57.818Z,100696.63
2023-05-16T21:39:00.546Z,100696.84
2023-05-16T21:42:05.337Z,100699.75
2023-05-16T21:45:12.574Z,100700.88
2023-05-16T21:48:15.696Z,100700.13
2023-05-16T21:51:19.496Z,100688.94
2023-05-16T21:54:22.218Z,100706.84
2023-05-16T21:57:26.398Z,100711.47
2023-05-16T22:00:29.126Z,100710.69
2023-05-16T22:03:31.961Z,100712.69
2023-05-16T22:06:34.743Z,100714.56
2023-05-16T22:09:37.554Z,100720.09
2023-05-16T22:12:41.655Z,100725.56
2023-05-16T22:15:52.161Z,100723.06
2023-05-16T22:19:08.963Z,100731.31
2023-05-16T22:22:12.358Z,100733.31
2023-05-16T22:25:15.649Z,100729.78
2023-05-16T22:28:19.958Z,100733.50
2023-05-16T22:31:22.674Z,100741.81
2023-05-16T22:34:25.558Z,100741.03
2023-05-16T22:37:28.306Z,100748.22
2023-05-16T22:40:31.572Z,100745.44
2023-05-16T22:43:35.789Z,100741.13
2023-05-16T22:46:38.514Z,100739.63
2023-05-16T22:49:41.290Z,100745.06
2023-05-16T22:52:44.094Z,100741.66
2023-05-16T22:55:46.811Z,100758.88
2023-05-16T22:58:50.835Z,100752.94
2023-05-16T23:01:53.776Z,100762.16
2023-05-16T23:04:56.517Z,100750.50
2023-05-16T23:07:59.391Z,100762.25
2023-05-16T23:11:02.145Z,100763.25
2023-05-16T23:14:06.198Z,100763.25
2023-05-16T23:17:09.064Z,100766.09
2023-05-16T23:20:14.985Z,100761.75
2023-05-16T23:23:17.672Z,100767.09
2023-05-16T23:26:21.054Z,100768.16
2023-05-16T23:29:25.156Z,100767.28
2023-05-16T23:32:27.996Z,100775.19
2023-05-16T23:35:30.741Z,100777.19
2023-05-16T23:38:33.448Z,100771.84
2023-05-16T23:41:36.178Z,100767.69
2023-05-16T23:44:41.775Z,100781.28
2023-05-16T23:47:44.553Z,100784.81
2023-05-16T23:50:47.351Z,100776.97
2023-05-16T23:53:50.139Z,100785.19
2023-05-16T23:56:52.896Z,100796.09
2023-05-16T23:59:57.589Z,100801.56
